createdAt,value
2014-08-01T00:00:00.170Z,25.3
2014-08-01T00:00:18.373Z,25.3
2014-08-01T00:00:36.623Z,25.3
2014-08-01T00:00:54.828Z,25.3
2014-08-01T00:01:13.063Z,25.3
2014-08-01T00:01:31.281Z,25.3
2014-08-01T00:01:49.500Z,25.3
2014-08-01T00:02:07.736Z,25.3
2014-08-01T00:02:25.986Z,25.3
2014-08-01T00:02:44.205Z,25.3
2014-08-01T00:03:02.426Z,25.3
2014-08-01T00:03:20.660Z,25.3
2014-08-01T00:03:38.879Z,25.3
2014-08-01T00:03:57.129Z,25.3
2014-08-01T00:04:15.351Z,25.3
2014-08-01T00:04:33.554Z,25.3
2014-08-01T00:04:51.804Z,25.3
2014-08-01T00:05:10.024Z,25.3
2014-08-01T00:05:28.242Z,25.3
2014-08-01T00:05:46.492Z,25.3
2014-08-01T00:06:18.902Z,25.3
2014-08-01T00:06:37.136Z,25.3
2014-08-01T00:06:55.355Z,25.3
2014-08-01T00:07:13.558Z,25.3
2014-08-01T00:07:31.794Z,25.3
2014-08-01T00:07:49.997Z,25.3
2014-08-01T00:08:08.232Z,25.2
2014-08-01T00:08:26.484Z,25.3
2014-08-01T00:08:44.703Z,25.3
2014-08-01T00:09:02.906Z,25.2
2014-08-01T00:09:21.124Z,25.2
2014-08-01T00:09:53.548Z,25.2
2014-08-01T00:10:11.767Z,25.2
2014-08-01T00:10:29.986Z,25.2
2014-08-01T00:10:48.191Z,25.3
2014-08-01T00:11:06.410Z,25.2
2014-08-01T00:11:24.660Z,25.2
2014-08-01T00:11:42.863Z,25.2
2014-08-01T00:12:01.099Z,25.2
2014-08-01T00:12:19.334Z,25.2
2014-08-01T00:12:37.568Z,25.2
2014-08-01T00:12:55.804Z,25.2
2014-08-01T00:13:13.992Z,25.2
2014-08-01T00:13:32.211Z,25.2
2014-08-01T00:13:50.445Z,25.2
2014-08-01T00:14:08.681Z,25.2
2014-08-01T00:14:26.900Z,25.2
2014-08-01T00:14:45.166Z,25.2
2014-08-01T00:15:03.371Z,25.2
2014-08-01T00:15:21.605Z,25.2
2014-08-01T00:15:39.824Z,25.2
2014-08-01T00:15:58.027Z,25.2
2014-08-01T00:16:16.248Z,25.2
2014-08-01T00:16:34.498Z,25.2
2014-08-01T00:16:52.748Z,25.2
2014-08-01T00:17:11.001Z,25.2
2014-08-01T00:17:29.220Z,25.2
2014-08-01T00:17:47.423Z,25.3
2014-08-01T00:18:05.641Z,25.2
2014-08-01T00:18:23.877Z,25.2
2014-08-01T00:18:42.096Z,25.2
2014-08-01T00:19:00.346Z,25.3
2014-08-01T00:19:18.551Z,25.2
2014-08-01T00:19:36.769Z,25.2
2014-08-01T00:19:55.035Z,25.2
2014-08-01T00:20:13.301Z,25.2
2014-08-01T00:20:31.522Z,25.2
2014-08-01T00:20:49.726Z,25.2
2014-08-01T00:21:07.960Z,25.2
2014-08-01T00:21:26.180Z,25.2
2014-08-01T00:21:44.430Z,25.2
2014-08-01T00:22:02.633Z,25.2
2014-08-01T00:22:20.852Z,25.2
2014-08-01T00:22:39.088Z,25.2
2014-08-01T00:22:57.307Z,25.2
2014-08-01T00:23:15.557Z,25.2
2014-08-01T00:23:33.732Z,25.2
2014-08-01T00:23:51.966Z,25.2
2014-08-01T00:24:10.216Z,25.2
2014-08-01T00:24:28.450Z,25.2
2014-08-01T00:24:46.654Z,25.2
2014-08-01T00:25:04.889Z,25.2
2014-08-01T00:25:23.123Z,25.2
2014-08-01T00:25:41.361Z,25.2
2014-08-01T00:25:59.642Z,25.2
2014-08-01T00:26:17.829Z,25.2
2014-08-01T00:26:36.064Z,25.2
2014-08-01T00:26:54.284Z,25.2
2014-08-01T00:27:12.534Z,25.2
2014-08-01T00:27:44.911Z,25.2
2014-08-01T00:28:03.130Z,25.2
2014-08-01T00:28:21.380Z,25.2
2014-08-01T00:28:39.583Z,25.2
2014-08-01T00:28:57.851Z,25.2
2014-08-01T00:29:16.054Z,25.2
2014-08-01T00:29:34.304Z,25.2
2014-08-01T00:29:52.525Z,25.2
2014-08-01T00:30:10.744Z,25.2
2014-08-01T00:30:28.962Z,25.2
2014-08-01T00:30:47.212Z,25.2
2014-08-01T00:31:05.433Z,25.2
2014-08-01T00:31:23.652Z,25.2
2014-08-01T00:31:41.886Z,25.2
2014-08-01T00:32:00.107Z,25.2
2014-08-01T00:32:18.341Z,25.2
2014-08-01T00:32:36.576Z,25.2
2014-08-01T00:32:54.763Z,25.2
2014-08-01T00:33:13.015Z,25.2
2014-08-01T00:33:31.218Z,25.2
2014-08-01T00:33:49.437Z,25.2
2014-08-01T00:34:07.673Z,25.2
2014-08-01T00:34:25.923Z,25.2
2014-08-01T00:34:44.158Z,25.2
2014-08-01T00:35:02.345Z,25.1
2014-08-01T00:35:20.597Z,25.1
2014-08-01T00:35:38.800Z,25.1
2014-08-01T00:35:57.082Z,25.1
2014-08-01T00:36:15.302Z,25.1
2014-08-01T00:36:33.521Z,25.1
2014-08-01T00:36:51.865Z,25.1
2014-08-01T00:37:10.068Z,25.1
2014-08-01T00:37:28.320Z,25.1
2014-08-01T00:37:46.523Z,25.1
2014-08-01T00:38:04.773Z,25.1
2014-08-01T00:38:23.010Z,25.1
2014-08-01T00:38:41.213Z,25.1
2014-08-01T00:38:59.431Z,25.1
2014-08-01T00:39:17.681Z,25.1
2014-08-01T00:39:35.902Z,25.1
2014-08-01T00:39:54.137Z,25.1
2014-08-01T00:40:12.340Z,25.1
2014-08-01T00:40:30.576Z,25.1
2014-08-01T00:40:48.795Z,25.1
2014-08-01T00:41:07.045Z,25.1
2014-08-01T00:41:25.264Z,25.1
2014-08-01T00:41:43.500Z,25.1
2014-08-01T00:42:01.719Z,25.1
2014-08-01T00:42:19.922Z,25.1
2014-08-01T00:42:38.144Z,25.1
2014-08-01T00:42:56.394Z,25.1
2014-08-01T00:43:14.628Z,25.1
2014-08-01T00:43:32.847Z,25.1
2014-08-01T00:43:51.067Z,25.1
2014-08-01T00:44:09.302Z,25.1
2014-08-01T00:44:27.521Z,25.1
2014-08-01T00:44:45.740Z,25.1
2014-08-01T00:45:03.943Z,25.1
2014-08-01T00:45:22.162Z,25.1
2014-08-01T00:45:40.412Z,25.1
2014-08-01T00:45:58.618Z,25.1
2014-08-01T00:46:16.868Z,25.1
2014-08-01T00:46:35.087Z,25.1
2014-08-01T00:46:53.322Z,25
2014-08-01T00:47:11.510Z,25
2014-08-01T00:47:29.744Z,25
2014-08-01T00:47:48.010Z,25
2014-08-01T00:48:06.263Z,25
2014-08-01T00:48:24.450Z,25
2014-08-01T00:48:42.700Z,25
2014-08-01T00:49:00.921Z,25
2014-08-01T00:49:19.156Z,25
2014-08-01T00:49:37.390Z,25
2014-08-01T00:49:55.609Z,25
2014-08-01T00:50:13.813Z,25
2014-08-01T00:50:46.219Z,25
2014-08-01T00:51:04.441Z,25
2014-08-01T00:51:22.675Z,25
2014-08-01T00:51:41.019Z,25
2014-08-01T00:51:59.238Z,25
2014-08-01T00:52:17.473Z,25
2014-08-01T00:52:49.864Z,25
2014-08-01T00:53:08.084Z,25
2014-08-01T00:53:26.319Z,25
2014-08-01T00:53:44.538Z,25
2014-08-01T00:54:02.741Z,25
2014-08-01T00:54:20.977Z,25
2014-08-01T00:54:39.180Z,25
2014-08-01T00:54:57.399Z,25
2014-08-01T00:55:15.620Z,25
2014-08-01T00:55:33.870Z,25
2014-08-01T00:55:52.088Z,25
2014-08-01T00:56:10.307Z,25
2014-08-01T00:56:28.529Z,25
2014-08-01T00:56:46.763Z,25
2014-08-01T00:57:04.966Z,25
2014-08-01T00:57:23.187Z,25
2014-08-01T00:57:41.406Z,24.9
2014-08-01T00:57:59.625Z,24.9
2014-08-01T00:58:17.890Z,24.9
2014-08-01T00:58:36.111Z,24.9
2014-08-01T00:58:54.345Z,24.9
2014-08-01T00:59:12.580Z,24.9
2014-08-01T00:59:30.801Z,24.9
2014-08-01T00:59:49.004Z,24.9
2014-08-01T01:00:07.238Z,24.9
2014-08-01T01:00:25.488Z,24.9
2014-08-01T01:00:43.692Z,24.9
2014-08-01T01:01:01.958Z,24.9
2014-08-01T01:01:20.161Z,24.9
2014-08-01T01:01:38.397Z,24.9
2014-08-01T01:01:56.600Z,24.9
2014-08-01T01:02:14.850Z,24.9
2014-08-01T01:02:33.085Z,24.9
2014-08-01T01:02:51.337Z,24.9
2014-08-01T01:03:09.556Z,24.9
2014-08-01T01:03:27.774Z,24.9
2014-08-01T01:03:45.996Z,24.9
2014-08-01T01:04:04.246Z,24.9
2014-08-01T01:04:22.465Z,24.9
2014-08-01T01:04:40.668Z,24.9
2014-08-01T01:04:58.889Z,24.9
2014-08-01T01:05:17.139Z,24.9
2014-08-01T01:05:35.357Z,24.9
2014-08-01T01:05:53.578Z,24.8
2014-08-01T01:06:11.781Z,24.9
2014-08-01T01:06:30.016Z,24.8
2014-08-01T01:06:48.250Z,24.9
2014-08-01T01:07:06.485Z,24.9
2014-08-01T01:07:24.704Z,24.9
2014-08-01T01:07:42.954Z,24.8
2014-08-01T01:08:01.176Z,24.9
2014-08-01T01:08:19.363Z,24.8
2014-08-01T01:08:37.598Z,24.8
2014-08-01T01:08:55.832Z,24.8
2014-08-01T01:09:14.053Z,24.8
2014-08-01T01:09:32.287Z,24.8
2014-08-01T01:09:50.506Z,24.8
2014-08-01T01:10:08.758Z,24.8
2014-08-01T01:10:26.961Z,24.8
2014-08-01T01:10:45.196Z,24.8
2014-08-01T01:11:03.430Z,24.8
2014-08-01T01:11:21.651Z,24.8
2014-08-01T01:11:39.963Z,24.8
2014-08-01T01:11:58.182Z,24.8
2014-08-01T01:12:16.387Z,24.8
2014-08-01T01:12:34.653Z,24.8
2014-08-01T01:12:52.871Z,24.8
2014-08-01T01:13:11.075Z,24.8
2014-08-01T01:13:29.312Z,24.8
2014-08-01T01:13:47.546Z,24.8
2014-08-01T01:14:05.765Z,24.8
2014-08-01T01:14:24.001Z,24.8
2014-08-01T01:14:42.236Z,24.8
2014-08-01T01:15:00.455Z,24.8
2014-08-01T01:15:18.689Z,24.8
2014-08-01T01:15:36.924Z,24.8
2014-08-01T01:15:55.143Z,24.8
2014-08-01T01:16:13.377Z,24.8
2014-08-01T01:16:31.567Z,24.8
2014-08-01T01:16:49.801Z,24.8
2014-08-01T01:17:08.020Z,24.8
2014-08-01T01:17:26.254Z,24.8
2014-08-01T01:17:44.491Z,24.8
2014-08-01T01:18:02.710Z,24.8
2014-08-01T01:18:20.944Z,24.8
2014-08-01T01:18:39.165Z,24.8
2014-08-01T01:18:57.415Z,24.8
2014-08-01T01:19:15.633Z,24.8
2014-08-01T01:19:33.883Z,24.8
2014-08-01T01:19:52.089Z,24.8
2014-08-01T01:20:10.307Z,24.8
2014-08-01T01:20:28.573Z,24.7
2014-08-01T01:20:46.809Z,24.8
2014-08-01T01:21:05.028Z,24.8
2014-08-01T01:21:23.216Z,24.8
2014-08-01T01:21:41.450Z,24.8
2014-08-01T01:21:59.687Z,24.8
2014-08-01T01:22:17.906Z,24.8
2014-08-01T01:22:36.125Z,24.8
2014-08-01T01:22:54.361Z,24.8
2014-08-01T01:23:12.596Z,24.8
2014-08-01T01:23:30.799Z,24.7
2014-08-01T01:23:49.033Z,24.8
2014-08-01T01:24:07.253Z,24.8
2014-08-01T01:24:25.472Z,24.7
2014-08-01T01:24:43.722Z,24.7
2014-08-01T01:25:01.927Z,24.7
2014-08-01T01:25:20.145Z,24.7
2014-08-01T01:25:38.380Z,24.7
2014-08-01T01:25:56.599Z,24.7
2014-08-01T01:26:14.945Z,24.7
2014-08-01T01:26:33.164Z,24.7
2014-08-01T01:26:51.367Z,24.7
2014-08-01T01:27:09.635Z,24.7
2014-08-01T01:27:27.854Z,24.7
2014-08-01T01:27:46.057Z,24.7
2014-08-01T01:28:04.291Z,24.7
2014-08-01T01:28:22.527Z,24.7
2014-08-01T01:28:40.746Z,24.7
2014-08-01T01:28:58.965Z,24.7
2014-08-01T01:29:17.186Z,24.7
2014-08-01T01:29:35.436Z,24.7
2014-08-01T01:29:53.639Z,24.7
2014-08-01T01:30:11.858Z,24.7
2014-08-01T01:30:30.110Z,24.7
2014-08-01T01:30:48.344Z,24.7
2014-08-01T01:31:20.704Z,24.7
2014-08-01T01:31:38.907Z,24.7
2014-08-01T01:31:57.142Z,24.7
2014-08-01T01:32:15.376Z,24.7
2014-08-01T01:32:33.614Z,24.7
2014-08-01T01:32:51.848Z,24.7
2014-08-01T01:33:10.051Z,24.7
2014-08-01T01:33:28.287Z,24.7
2014-08-01T01:33:46.491Z,24.7
2014-08-01T01:34:04.741Z,24.7
2014-08-01T01:34:22.944Z,24.7
2014-08-01T01:34:41.163Z,24.7
2014-08-01T01:34:59.413Z,24.7
2014-08-01T01:35:17.648Z,24.7
2014-08-01T01:35:35.870Z,24.7
2014-08-01T01:35:54.104Z,24.7
2014-08-01T01:36:12.307Z,24.7
2014-08-01T01:36:30.526Z,24.7
2014-08-01T01:36:48.762Z,24.7
2014-08-01T01:37:06.997Z,24.7
2014-08-01T01:37:25.231Z,24.7
2014-08-01T01:37:43.467Z,24.7
2014-08-01T01:38:01.702Z,24.7
2014-08-01T01:38:19.905Z,24.7
2014-08-01T01:38:38.155Z,24.7
2014-08-01T01:38:56.376Z,24.7
2014-08-01T01:39:14.626Z,24.7
2014-08-01T01:39:32.829Z,24.6
2014-08-01T01:39:51.049Z,24.6
2014-08-01T01:40:09.299Z,24.6
2014-08-01T01:40:27.518Z,24.6
2014-08-01T01:40:45.737Z,24.7
2014-08-01T01:41:03.958Z,24.6
2014-08-01T01:41:22.208Z,24.6
2014-08-01T01:41:40.411Z,24.7
2014-08-01T01:41:58.633Z,24.7
2014-08-01T01:42:16.883Z,24.7
2014-08-01T01:42:35.117Z,24.7
2014-08-01T01:42:53.336Z,24.7
2014-08-01T01:43:11.525Z,24.7
2014-08-01T01:43:29.775Z,24.7
2014-08-01T01:43:48.010Z,24.7
2014-08-01T01:44:06.214Z,24.7
2014-08-01T01:44:24.464Z,24.7
2014-08-01T01:44:42.682Z,24.6
2014-08-01T01:45:00.948Z,24.6
2014-08-01T01:45:33.325Z,24.6
2014-08-01T01:45:51.528Z,24.6
2014-08-01T01:46:09.763Z,24.6
2014-08-01T01:46:27.984Z,24.6
2014-08-01T01:46:46.234Z,24.6
2014-08-01T01:47:04.437Z,24.6
2014-08-01T01:47:22.687Z,24.6
2014-08-01T01:47:40.908Z,24.6
2014-08-01T01:47:59.158Z,24.6
2014-08-01T01:48:49.832Z,24.6
2014-08-01T01:49:08.066Z,24.6
2014-08-01T01:49:26.285Z,24.6
2014-08-01T01:49:58.678Z,24.6
2014-08-01T01:50:16.897Z,24.6
2014-08-01T01:50:35.115Z,24.6
2014-08-01T01:50:53.337Z,24.6
2014-08-01T01:51:11.540Z,24.6
2014-08-01T01:51:29.790Z,24.6
2014-08-01T01:51:47.993Z,24.6
2014-08-01T01:52:06.214Z,24.6
2014-08-01T01:52:24.464Z,24.6
2014-08-01T01:52:42.683Z,24.6
2014-08-01T01:53:00.904Z,24.6
2014-08-01T01:53:19.138Z,24.6
2014-08-01T01:53:37.372Z,24.6
2014-08-01T01:53:55.591Z,24.6
2014-08-01T01:54:13.796Z,24.6
2014-08-01T01:54:32.015Z,24.6
2014-08-01T01:54:50.249Z,24.6
2014-08-01T01:55:08.485Z,24.6
2014-08-01T01:55:26.688Z,24.6
2014-08-01T01:55:44.953Z,24.6
2014-08-01T01:56:03.172Z,24.6
2014-08-01T01:56:21.410Z,24.6
2014-08-01T01:56:39.613Z,24.6
2014-08-01T01:56:57.863Z,24.6
2014-08-01T01:57:16.052Z,24.6
2014-08-01T01:57:34.287Z,24.6
2014-08-01T01:57:52.537Z,24.6
2014-08-01T01:58:10.755Z,24.6
2014-08-01T01:58:28.959Z,24.6
2014-08-01T01:58:47.178Z,24.6
2014-08-01T01:59:05.428Z,24.6
2014-08-01T01:59:23.650Z,24.6
2014-08-01T01:59:41.869Z,24.6
2014-08-01T02:00:00.134Z,24.6
2014-08-01T02:00:18.369Z,24.6
2014-08-01T02:00:36.589Z,24.6
2014-08-01T02:00:54.808Z,24.6
2014-08-01T02:01:13.027Z,24.6
2014-08-01T02:01:31.279Z,24.6
2014-08-01T02:01:49.513Z,24.6
2014-08-01T02:02:07.716Z,24.6
2014-08-01T02:02:25.935Z,24.6
2014-08-01T02:02:44.186Z,24.6
2014-08-01T02:03:17.327Z,24.6
2014-08-01T02:03:35.564Z,24.6
2014-08-01T02:03:53.752Z,24.6
2014-08-01T02:04:11.970Z,24.6
2014-08-01T02:04:30.220Z,24.6
2014-08-01T02:04:48.457Z,24.6
2014-08-01T02:05:06.644Z,24.6
2014-08-01T02:05:24.879Z,24.6
2014-08-01T02:05:43.162Z,24.6
2014-08-01T02:06:01.396Z,24.6
2014-08-01T02:06:19.615Z,24.6
2014-08-01T02:06:37.849Z,24.6
2014-08-01T02:06:56.070Z,24.6
2014-08-01T02:07:14.289Z,24.6
2014-08-01T02:07:32.601Z,24.6
2014-08-01T02:07:50.838Z,24.6
2014-08-01T02:08:09.088Z,24.6
2014-08-01T02:08:27.307Z,24.6
2014-08-01T02:08:45.510Z,24.6
2014-08-01T02:09:03.729Z,24.6
2014-08-01T02:09:21.979Z,24.6
2014-08-01T02:09:40.214Z,24.6
2014-08-01T02:09:58.404Z,24.6
2014-08-01T02:10:16.654Z,24.6
2014-08-01T02:10:34.857Z,24.6
2014-08-01T02:10:53.107Z,24.6
2014-08-01T02:11:43.688Z,24.6
2014-08-01T02:12:01.940Z,24.6
2014-08-01T02:12:20.174Z,24.6
2014-08-01T02:12:38.393Z,24.6
2014-08-01T02:12:56.658Z,24.6
2014-08-01T02:13:14.878Z,24.6
2014-08-01T02:13:33.128Z,24.6
2014-08-01T02:13:51.347Z,24.6
2014-08-01T02:14:09.600Z,24.6
2014-08-01T02:14:27.819Z,24.6
2014-08-01T02:14:46.069Z,24.6
2014-08-01T02:15:04.272Z,24.6
2014-08-01T02:15:22.508Z,24.6
2014-08-01T02:15:40.727Z,24.6
2014-08-01T02:15:58.946Z,24.6
2014-08-01T02:16:17.166Z,24.6
2014-08-01T02:16:35.385Z,24.6
2014-08-01T02:16:53.651Z,24.6
2014-08-01T02:17:11.869Z,24.6
2014-08-01T02:17:44.231Z,24.6
2014-08-01T02:18:02.450Z,24.6
2014-08-01T02:18:20.700Z,24.6
2014-08-01T02:18:38.937Z,24.6
2014-08-01T02:18:57.156Z,24.6
2014-08-01T02:19:15.374Z,24.6
2014-08-01T02:19:33.593Z,24.6
2014-08-01T02:19:51.830Z,24.6
2014-08-01T02:20:10.048Z,24.6
2014-08-01T02:20:28.267Z,24.6
2014-08-01T02:20:46.519Z,24.6
2014-08-01T02:21:04.738Z,24.6
2014-08-01T02:21:22.941Z,24.6
2014-08-01T02:21:41.160Z,24.6
2014-08-01T02:21:59.427Z,24.6
2014-08-01T02:22:17.646Z,24.6
2014-08-01T02:22:35.849Z,24.6
2014-08-01T02:22:54.086Z,24.6
2014-08-01T02:23:12.289Z,24.6
2014-08-01T02:23:30.539Z,24.6
2014-08-01T02:23:48.742Z,24.6
2014-08-01T02:24:06.962Z,24.6
2014-08-01T02:24:25.212Z,24.6
2014-08-01T02:24:43.430Z,24.6
2014-08-01T02:25:01.636Z,24.6
2014-08-01T02:25:19.871Z,24.6
2014-08-01T02:25:38.121Z,24.6
2014-08-01T02:25:56.340Z,24.6
2014-08-01T02:26:14.560Z,24.6
2014-08-01T02:26:32.826Z,24.6
2014-08-01T02:26:51.076Z,24.6
2014-08-01T02:27:09.312Z,24.6
2014-08-01T02:27:27.500Z,24.6
2014-08-01T02:27:45.734Z,24.6
2014-08-01T02:28:03.969Z,24.6
2014-08-01T02:28:22.205Z,24.6
2014-08-01T02:28:40.424Z,24.6
2014-08-01T02:28:58.658Z,24.6
2014-08-01T02:29:16.926Z,24.6
2014-08-01T02:29:35.144Z,24.6
2014-08-01T02:29:53.379Z,24.6
2014-08-01T02:30:11.598Z,24.6
2014-08-01T02:30:29.803Z,24.6
2014-08-01T02:30:48.037Z,24.6
2014-08-01T02:31:06.256Z,24.6
2014-08-01T02:31:24.508Z,24.6
2014-08-01T02:31:42.711Z,24.6
2014-08-01T02:32:00.961Z,24.6
2014-08-01T02:32:19.180Z,24.6
2014-08-01T02:32:37.416Z,24.6
2014-08-01T02:32:55.635Z,24.6
2014-08-01T02:33:13.822Z,24.6
2014-08-01T02:33:32.074Z,24.6
2014-08-01T02:33:50.277Z,24.6
2014-08-01T02:34:08.512Z,24.6
2014-08-01T02:34:26.746Z,24.6
2014-08-01T02:34:44.998Z,24.6
2014-08-01T02:35:03.233Z,24.6
2014-08-01T02:35:21.467Z,24.6
2014-08-01T02:35:39.703Z,24.6
2014-08-01T02:35:57.906Z,24.6
2014-08-01T02:36:16.141Z,24.6
2014-08-01T02:36:34.360Z,24.6
2014-08-01T02:36:52.597Z,24.6
2014-08-01T02:37:10.816Z,24.6
2014-08-01T02:37:29.066Z,24.5
2014-08-01T02:37:47.285Z,24.6
2014-08-01T02:38:05.489Z,24.5
2014-08-01T02:38:23.739Z,24.5
2014-08-01T02:38:41.957Z,24.5
2014-08-01T02:39:00.179Z,24.5
2014-08-01T02:39:18.413Z,24.5
2014-08-01T02:39:36.648Z,24.5
2014-08-01T02:39:54.884Z,24.5
2014-08-01T02:40:13.103Z,24.5
2014-08-01T02:40:31.306Z,24.5
2014-08-01T02:40:49.525Z,24.5
2014-08-01T02:41:07.745Z,24.5
2014-08-01T02:41:26.010Z,24.5
2014-08-01T02:41:44.229Z,24.5
2014-08-01T02:42:02.465Z,24.5
2014-08-01T02:42:20.684Z,24.5
2014-08-01T02:42:38.887Z,24.5
2014-08-01T02:42:57.122Z,24.5
2014-08-01T02:43:15.343Z,24.5
2014-08-01T02:43:33.578Z,24.5
2014-08-01T02:43:51.812Z,24.5
2014-08-01T02:44:10.033Z,24.5
2014-08-01T02:44:43.142Z,24.5
2014-08-01T02:45:01.408Z,24.5
2014-08-01T02:45:19.629Z,24.5
2014-08-01T02:45:37.832Z,24.5
2014-08-01T02:45:56.066Z,24.5
2014-08-01T02:46:14.285Z,24.5
2014-08-01T02:46:32.537Z,24.5
2014-08-01T02:46:50.771Z,24.5
2014-08-01T02:47:08.959Z,24.5
2014-08-01T02:47:27.211Z,24.5
2014-08-01T02:47:45.445Z,24.5
2014-08-01T02:48:03.648Z,24.5
2014-08-01T02:48:21.883Z,24.5
2014-08-01T02:48:40.135Z,24.5
2014-08-01T02:48:58.463Z,24.5
2014-08-01T02:49:16.650Z,24.5
2014-08-01T02:49:34.871Z,24.5
2014-08-01T02:49:53.105Z,24.5
2014-08-01T02:50:11.340Z,24.5
2014-08-01T02:50:29.543Z,24.5
2014-08-01T02:50:47.764Z,24.5
2014-08-01T02:51:06.029Z,24.5
2014-08-01T02:51:24.248Z,24.5
2014-08-01T02:51:42.500Z,24.5
2014-08-01T02:52:00.687Z,24.5
2014-08-01T02:52:18.922Z,24.5
2014-08-01T02:52:37.125Z,24.5
2014-08-01T02:52:55.346Z,24.5
2014-08-01T02:53:13.580Z,24.5
2014-08-01T02:53:31.830Z,24.5
2014-08-01T02:53:50.066Z,24.5
2014-08-01T02:54:08.254Z,24.5
2014-08-01T02:54:26.473Z,24.5
2014-08-01T02:54:44.738Z,24.5
2014-08-01T02:55:02.928Z,24.5
2014-08-01T02:55:21.162Z,24.5
2014-08-01T02:55:39.381Z,24.4
2014-08-01T02:55:57.617Z,24.5
2014-08-01T02:56:15.852Z,24.5
2014-08-01T02:57:06.464Z,24.5
2014-08-01T02:57:24.683Z,24.5
2014-08-01T02:57:42.917Z,24.5
2014-08-01T02:58:01.136Z,24.5
2014-08-01T02:58:19.372Z,24.5
2014-08-01T02:58:37.575Z,24.5
2014-08-01T02:58:55.810Z,24.5
2014-08-01T02:59:14.062Z,24.5
2014-08-01T02:59:32.281Z,24.5
2014-08-01T02:59:50.484Z,24.5
2014-08-01T03:00:08.749Z,24.5
2014-08-01T03:00:26.953Z,24.5
2014-08-01T03:00:45.219Z,24.5
2014-08-01T03:01:03.438Z,24.5
2014-08-01T03:01:21.644Z,24.5
2014-08-01T03:01:39.863Z,24.5
2014-08-01T03:01:58.097Z,24.5
2014-08-01T03:02:16.316Z,24.5
2014-08-01T03:02:34.536Z,24.4
2014-08-01T03:02:52.739Z,24.4
2014-08-01T03:03:11.004Z,24.4
2014-08-01T03:03:29.235Z,24.4
2014-08-01T03:03:47.454Z,24.4
2014-08-01T03:04:05.657Z,24.5
2014-08-01T03:04:23.907Z,24.5
2014-08-01T03:04:42.180Z,24.5
2014-08-01T03:05:00.383Z,24.5
2014-08-01T03:05:18.618Z,24.5
2014-08-01T03:05:36.913Z,24.5
2014-08-01T03:05:55.132Z,24.5
2014-08-01T03:06:13.350Z,24.4
2014-08-01T03:06:31.569Z,24.4
2014-08-01T03:06:49.844Z,24.4
2014-08-01T03:07:08.110Z,24.4
2014-08-01T03:07:26.313Z,24.4
2014-08-01T03:07:44.576Z,24.4
2014-08-01T03:08:02.826Z,24.4
2014-08-01T03:08:21.076Z,24.4
2014-08-01T03:08:39.295Z,24.4
2014-08-01T03:08:57.574Z,24.4
2014-08-01T03:09:15.808Z,24.4
2014-08-01T03:09:34.027Z,24.4
2014-08-01T03:09:52.278Z,24.4
2014-08-01T03:10:10.481Z,24.4
2014-08-01T03:10:28.700Z,24.4
2014-08-01T03:10:46.950Z,24.4
2014-08-01T03:11:05.169Z,24.4
2014-08-01T03:11:23.419Z,24.4
2014-08-01T03:11:41.638Z,24.4
2014-08-01T03:11:59.888Z,24.4
2014-08-01T03:12:18.091Z,24.4
2014-08-01T03:12:36.295Z,24.4
2014-08-01T03:12:54.560Z,24.4
2014-08-01T03:13:12.811Z,24.4
2014-08-01T03:13:31.014Z,24.4
2014-08-01T03:13:49.326Z,24.4
2014-08-01T03:14:07.586Z,24.4
2014-08-01T03:14:25.821Z,24.4
2014-08-01T03:14:44.008Z,24.4
2014-08-01T03:15:02.242Z,24.4
2014-08-01T03:15:20.452Z,24.4
2014-08-01T03:15:38.717Z,24.4
2014-08-01T03:15:56.920Z,24.4
2014-08-01T03:16:15.147Z,24.4
2014-08-01T03:16:33.397Z,24.4
2014-08-01T03:16:51.616Z,24.4
2014-08-01T03:17:09.835Z,24.4
2014-08-01T03:17:42.250Z,24.4
2014-08-01T03:18:00.453Z,24.4
2014-08-01T03:18:18.687Z,24.4
2014-08-01T03:18:36.913Z,24.4
2014-08-01T03:18:55.132Z,24.4
2014-08-01T03:19:13.335Z,24.4
2014-08-01T03:19:31.585Z,24.4
2014-08-01T03:19:49.808Z,24.4
2014-08-01T03:20:08.026Z,24.4
2014-08-01T03:20:26.230Z,24.4
2014-08-01T03:20:44.484Z,24.4
2014-08-01T03:21:02.718Z,24.4
2014-08-01T03:21:20.921Z,24.4
2014-08-01T03:21:39.140Z,24.4
2014-08-01T03:21:57.362Z,24.4
2014-08-01T03:22:15.612Z,24.4
2014-08-01T03:22:33.815Z,24.4
2014-08-01T03:22:52.023Z,24.4
2014-08-01T03:23:10.288Z,24.4
2014-08-01T03:23:28.507Z,24.4
2014-08-01T03:23:46.710Z,24.4
2014-08-01T03:24:04.948Z,24.4
2014-08-01T03:24:23.213Z,24.4
2014-08-01T03:24:41.448Z,24.4
2014-08-01T03:24:59.668Z,24.4
2014-08-01T03:25:17.903Z,24.4
2014-08-01T03:25:36.137Z,24.4
2014-08-01T03:25:54.356Z,24.4
2014-08-01T03:26:12.578Z,24.4
2014-08-01T03:26:30.796Z,24.4
2014-08-01T03:26:49.093Z,24.4
2014-08-01T03:27:07.315Z,24.4
2014-08-01T03:27:25.534Z,24.4
2014-08-01T03:27:43.737Z,24.4
2014-08-01T03:28:02.003Z,24.4
2014-08-01T03:28:20.223Z,24.4
2014-08-01T03:28:38.426Z,24.4
2014-08-01T03:28:56.645Z,24.4
2014-08-01T03:29:14.898Z,24.4
2014-08-01T03:29:33.179Z,24.4
2014-08-01T03:29:51.398Z,24.4
2014-08-01T03:30:09.617Z,24.4
2014-08-01T03:30:27.837Z,24.4
2014-08-01T03:30:46.071Z,24.4
2014-08-01T03:31:04.274Z,24.4
2014-08-01T03:31:22.513Z,24.4
2014-08-01T03:31:40.763Z,24.4
2014-08-01T03:31:58.966Z,24.4
2014-08-01T03:32:17.216Z,24.4
2014-08-01T03:32:35.436Z,24.3
2014-08-01T03:32:53.640Z,24.3
2014-08-01T03:33:11.858Z,24.3
2014-08-01T03:33:30.079Z,24.3
2014-08-01T03:33:48.345Z,24.3
2014-08-01T03:34:06.563Z,24.3
2014-08-01T03:34:24.767Z,24.4
2014-08-01T03:34:43.003Z,24.4
2014-08-01T03:35:01.206Z,24.4
2014-08-01T03:35:19.440Z,24.4
2014-08-01T03:35:37.661Z,24.4
2014-08-01T03:35:55.911Z,24.4
2014-08-01T03:36:14.130Z,24.4
2014-08-01T03:36:32.333Z,24.4
2014-08-01T03:36:50.569Z,24.4
2014-08-01T03:37:08.819Z,24.4
2014-08-01T03:37:27.054Z,24.4
2014-08-01T03:37:45.275Z,24.4
2014-08-01T03:38:03.493Z,24.4
2014-08-01T03:38:21.712Z,24.4
2014-08-01T03:38:39.931Z,24.3
2014-08-01T03:38:58.136Z,24.3
2014-08-01T03:39:16.448Z,24.3
2014-08-01T03:39:34.698Z,24.4
2014-08-01T03:39:52.935Z,24.4
2014-08-01T03:40:11.138Z,24.3
2014-08-01T03:40:29.372Z,24.3
2014-08-01T03:40:47.591Z,24.3
2014-08-01T03:41:05.828Z,24.3
2014-08-01T03:41:24.032Z,24.3
2014-08-01T03:41:42.250Z,24.3
2014-08-01T03:42:00.486Z,24.3
2014-08-01T03:42:18.720Z,24.3
2014-08-01T03:42:36.939Z,24.3
2014-08-01T03:42:55.189Z,24.3
2014-08-01T03:43:13.411Z,24.3
2014-08-01T03:43:31.629Z,24.3
2014-08-01T03:44:22.224Z,24.3
2014-08-01T03:44:40.458Z,24.3
2014-08-01T03:44:58.693Z,24.3
2014-08-01T03:45:16.914Z,24.3
2014-08-01T03:45:35.148Z,24.3
2014-08-01T03:45:53.382Z,24.3
2014-08-01T03:46:11.604Z,24.3
2014-08-01T03:46:29.838Z,24.3
2014-08-01T03:47:02.213Z,24.3
2014-08-01T03:47:20.450Z,24.3
2014-08-01T03:47:38.684Z,24.3
2014-08-01T03:47:56.919Z,24.3
2014-08-01T03:48:15.106Z,24.3
2014-08-01T03:48:33.341Z,24.3
2014-08-01T03:48:51.576Z,24.3
2014-08-01T03:49:09.826Z,24.3
2014-08-01T03:49:28.063Z,24.3
2014-08-01T03:49:46.251Z,24.3
2014-08-01T03:50:04.469Z,24.3
2014-08-01T03:50:22.719Z,24.3
2014-08-01T03:50:40.924Z,24.3
2014-08-01T03:50:59.158Z,24.3
2014-08-01T03:51:17.392Z,24.3
2014-08-01T03:51:35.614Z,24.3
2014-08-01T03:52:08.770Z,24.3
2014-08-01T03:52:27.005Z,24.3
2014-08-01T03:52:45.210Z,24.3
2014-08-01T03:53:03.444Z,24.3
2014-08-01T03:53:21.679Z,24.3
2014-08-01T03:53:39.897Z,24.3
2014-08-01T03:53:58.134Z,24.3
2014-08-01T03:54:16.337Z,24.3
2014-08-01T03:54:34.587Z,24.3
2014-08-01T03:54:52.839Z,24.3
2014-08-01T03:55:11.073Z,24.3
2014-08-01T03:55:29.276Z,24.3
2014-08-01T03:55:47.526Z,24.3
2014-08-01T03:56:05.747Z,24.3
2014-08-01T03:56:23.950Z,24.3
2014-08-01T03:56:42.153Z,24.3
2014-08-01T03:57:00.421Z,24.3
2014-08-01T03:57:18.655Z,24.3
2014-08-01T03:57:36.858Z,24.3
2014-08-01T03:57:55.093Z,24.3
2014-08-01T03:58:13.329Z,24.3
2014-08-01T03:58:31.564Z,24.3
2014-08-01T03:59:03.941Z,24.3
2014-08-01T03:59:22.144Z,24.3
2014-08-01T03:59:40.378Z,24.3
2014-08-01T03:59:58.612Z,24.3
2014-08-01T04:00:16.833Z,24.3
2014-08-01T04:00:35.068Z,24.3
2014-08-01T04:00:53.271Z,24.3
2014-08-01T04:01:11.508Z,24.3
2014-08-01T04:01:29.711Z,24.3
2014-08-01T04:01:47.930Z,24.3
2014-08-01T04:02:06.164Z,24.3
2014-08-01T04:02:24.400Z,24.3
2014-08-01T04:02:42.618Z,24.3
2014-08-01T04:03:00.853Z,24.3
2014-08-01T04:03:19.074Z,24.3
2014-08-01T04:03:37.292Z,24.3
2014-08-01T04:03:55.511Z,24.3
2014-08-01T04:04:13.745Z,24.3
2014-08-01T04:04:31.966Z,24.3
2014-08-01T04:04:50.185Z,24.3
2014-08-01T04:05:08.435Z,24.3
2014-08-01T04:05:26.640Z,24.3
2014-08-01T04:05:44.906Z,24.3
2014-08-01T04:06:03.124Z,24.3
2014-08-01T04:06:21.343Z,24.3
2014-08-01T04:06:39.595Z,24.3
2014-08-01T04:06:57.798Z,24.3
2014-08-01T04:07:16.017Z,24.3
2014-08-01T04:07:34.253Z,24.3
2014-08-01T04:08:06.644Z,24.3
2014-08-01T04:08:24.894Z,24.3
2014-08-01T04:08:43.116Z,24.3
2014-08-01T04:09:01.319Z,24.3